createdAt,value
2022-10-13T05:38:56.845Z,101000.25
2022-10-13T05:41:59.771Z,100993.94
2022-10-13T05:45:02.908Z,100995.63
2022-10-13T05:48:06.146Z,100996.13
2022-10-13T05:51:19.287Z,100995.81
2022-10-13T05:54:35.213Z,101007.81
2022-10-13T05:57:41.490Z,101005.56
2022-10-13T06:00:44.906Z,101005.09
2022-10-13T06:03:49.910Z,101005.34
2022-10-13T06:06:52.777Z,101006.06
2022-10-13T06:09:57.324Z,101009.34
2022-10-13T06:12:59.951Z,101017.72
2022-10-13T06:16:02.977Z,101012.87
2022-10-13T06:19:06.127Z,101020.44
2022-10-13T06:22:09.172Z,101019.69
2022-10-13T06:25:13.242Z,101020.47
2022-10-13T06:28:19.053Z,101019.53
2022-10-13T06:31:21.900Z,101030.78
2022-10-13T06:34:24.865Z,101031.44
2022-10-13T06:37:27.722Z,101031.50
2022-10-13T06:40:33.448Z,101036.38
2022-10-13T06:43:40.482Z,101025.38
2022-10-13T06:46:45.653Z,101028.19
2022-10-13T06:49:48.266Z,101025.75
2022-10-13T06:52:52.337Z,101023.06
2022-10-13T06:56:04.867Z,101027.41
2022-10-13T06:59:08.487Z,101023.22
2022-10-13T07:02:12.200Z,101023.91
2022-10-13T07:05:15.206Z,101017.03
2022-10-13T07:08:18.043Z,101019.16
2022-10-13T07:11:21.515Z,101028.28
2022-10-13T07:14:44.466Z,101029.38
2022-10-13T07:17:47.506Z,101025.62
2022-10-13T07:20:50.202Z,101022.41
2022-10-13T07:23:53.213Z,101031.50
2022-10-13T07:26:55.862Z,101031.47
2022-10-13T07:29:58.798Z,101029.06
2022-10-13T07:33:02.243Z,101026.59
2022-10-13T07:36:05.895Z,101039.06
2022-10-13T09:15:21.646Z,100984.38
2022-10-13T09:18:31.914Z,100984.50
2022-10-13T09:21:34.655Z,100985.34
2022-10-13T09:24:39.359Z,100985.03
2022-10-13T09:27:52.505Z,100993.13
2022-10-13T09:31:11.598Z,100981.69
2022-10-13T09:34:19.433Z,100981.88
2022-10-13T09:37:26.494Z,100987.81
2022-10-13T09:40:32.445Z,100976.47
2022-10-13T09:43:47.285Z,100975.56
2022-10-13T09:46:55.580Z,100972.87
2022-10-13T09:50:06.596Z,100977.16
2022-10-13T09:53:26.554Z,100982.53
2022-10-13T09:56:43.598Z,100978.75
2022-10-13T10:00:04.719Z,100965.75
2022-10-13T10:03:23.854Z,100962.34
2022-10-13T10:06:27.944Z,100959.56
2022-10-13T10:09:41.510Z,100952.56
2022-10-13T10:12:45.290Z,100957.41
2022-10-13T10:15:47.854Z,100953.59
2022-10-13T10:19:00.174Z,100950.81
2022-10-13T10:22:15.806Z,100950.59
2022-10-13T10:25:47.110Z,100949.31
2022-10-13T10:29:01.930Z,100938.94
2022-10-13T10:32:27.854Z,100929.50
2022-10-13T10:35:49.810Z,100932.28
2022-10-13T10:39:03.014Z,100933.72
2022-10-13T10:42:42.393Z,100928.44
2022-10-13T10:45:48.647Z,100916.31
2022-10-13T10:48:57.206Z,100910.06
2022-10-13T10:52:03.606Z,100909.41
2022-10-13T10:55:12.340Z,100903.72
2022-10-13T10:58:23.390Z,100899.94
2022-10-13T11:01:54.132Z,100901.37
2022-10-13T11:05:05.271Z,100894.06
2022-10-13T11:08:47.066Z,100886.97
2022-10-13T11:11:50.331Z,100885.47
2022-10-13T11:15:11.514Z,100886.59
2022-10-13T11:18:53.083Z,100882.13
2022-10-13T11:21:59.764Z,100862.62
2022-10-13T11:25:54.057Z,100868.66
2022-10-13T11:28:57.308Z,100870.00
2022-10-13T11:32:00.311Z,100866.28
2022-10-13T11:35:06.048Z,100857.84
2022-10-13T11:38:23.683Z,100862.31
2022-10-13T11:41:32.114Z,100852.78
2022-10-13T11:44:41.035Z,100843.87
2022-10-13T11:47:43.610Z,100839.41
2022-10-13T11:51:26.033Z,100835.78
2022-10-13T11:54:57.640Z,100825.12
2022-10-13T11:58:15.632Z,100829.06
2022-10-13T12:01:19.571Z,100824.97
2022-10-13T12:04:24.272Z,100816.56
2022-10-13T12:07:33.392Z,100823.09
2022-10-13T12:10:38.128Z,100813.88
2022-10-13T12:13:47.471Z,100813.88
2022-10-13T12:20:04.458Z,100809.44
2022-10-13T12:23:17.106Z,100800.38
2022-10-13T12:26:24.394Z,100798.28
2022-10-13T12:29:31.164Z,100795.91
2022-10-13T12:32:36.735Z,100789.25
2022-10-13T12:35:39.704Z,100786.84
2022-10-13T12:38:47.276Z,100782.09
2022-10-13T12:41:55.218Z,100775.91
2022-10-13T12:45:00.369Z,100775.28
2022-10-13T12:48:03.461Z,100771.31
2022-10-13T12:51:20.998Z,100768.44
2022-10-13T12:54:29.867Z,100770.22
2022-10-13T12:57:38.684Z,100774.66
2022-10-13T13:00:42.182Z,100769.37
2022-10-13T13:03:44.981Z,100768.63
2022-10-13T13:07:05.582Z,100765.75
2022-10-13T13:10:08.239Z,100762.25
2022-10-13T13:13:15.280Z,100749.06
2022-10-13T13:16:21.181Z,100759.69
2022-10-13T13:19:24.433Z,100755.87
2022-10-13T13:22:27.976Z,100750.34
2022-10-13T13:25:30.923Z,100740.69
2022-10-13T13:28:37.283Z,100739.06
2022-10-13T13:31:40.305Z,100741.31
2022-10-13T13:34:43.653Z,100737.66
2022-10-13T13:37:53.517Z,100734.50
2022-10-13T13:40:58.982Z,100738.00
2022-10-13T13:44:04.576Z,100733.66
2022-10-13T13:47:25.006Z,100726.06
2022-10-13T13:50:37.759Z,100729.56
2022-10-13T16:17:38.801Z,100682.94
2022-10-13T16:20:45.355Z,100678.88
2022-10-13T16:23:48.738Z,100677.00
2022-10-13T16:26:51.672Z,100686.94
2022-10-13T16:29:54.375Z,100684.50
2022-10-13T16:32:58.197Z,100684.06
2022-10-13T16:36:05.566Z,100682.34
2022-10-13T16:39:08.553Z,100689.91
2022-10-13T16:42:14.732Z,100685.00
2022-10-13T16:45:17.646Z,100693.63
2022-10-13T16:48:20.311Z,100685.16
2022-10-13T16:51:25.080Z,100678.22
2022-10-13T16:54:27.954Z,100682.62
2022-10-13T16:57:31.466Z,100695.59
2022-10-13T17:00:36.208Z,100689.75
2022-10-13T17:03:39.758Z,100690.53
2022-10-13T17:06:42.425Z,100679.53
2022-10-13T17:09:45.460Z,100684.94
2022-10-13T17:12:48.993Z,100684.50
2022-10-13T17:15:53.504Z,100687.22
2022-10-13T17:18:57.141Z,100679.88
2022-10-13T17:22:05.574Z,100687.19
2022-10-13T17:25:09.188Z,100689.06
2022-10-13T17:28:12.289Z,100688.34
2022-10-13T17:31:18.187Z,100687.06
2022-10-13T17:34:21.615Z,100678.81
2022-10-13T17:37:27.163Z,100685.00
2022-10-13T17:40:33.844Z,100688.97
2022-10-13T17:43:38.442Z,100690.84
2022-10-13T17:46:41.614Z,100682.91
2022-10-13T17:49:48.770Z,100686.12
2022-10-13T17:53:12.898Z,100689.88
2022-10-13T17:56:18.690Z,100682.09
2022-10-13T17:59:41.743Z,100680.75
2022-10-13T18:02:44.607Z,100678.69
2022-10-13T18:06:08.162Z,100684.59
2022-10-13T18:09:19.713Z,100685.16
2022-10-13T18:12:22.784Z,100680.63
2022-10-13T18:15:25.483Z,100682.19
2022-10-13T18:18:28.435Z,100685.19
2022-10-13T18:21:31.176Z,100679.06
2022-10-13T18:24:34.158Z,100686.00
2022-10-13T18:27:36.773Z,100673.97
2022-10-13T18:30:39.710Z,100684.66
2022-10-13T18:33:42.580Z,100678.81
2022-10-13T18:36:51.299Z,100674.53
2022-10-13T18:39:54.708Z,100672.94
2022-10-13T18:43:35.607Z,100677.50
2022-10-13T18:46:39.221Z,100670.81
2022-10-13T18:49:42.148Z,100670.00
2022-10-13T18:53:04.999Z,100670.03
2022-10-13T18:56:12.070Z,100672.44
2022-10-13T18:59:15.103Z,100662.56
2022-10-13T19:02:18.037Z,100672.94
2022-10-13T19:05:28.598Z,100667.09
2022-10-13T19:08:33.761Z,100670.81
2022-10-13T19:11:37.409Z,100666.81
2022-10-13T19:14:40.853Z,100658.28
2022-10-13T19:17:43.602Z,100660.69
2022-10-13T19:21:06.835Z,100663.09
2022-10-13T19:24:10.766Z,100668.13
2022-10-13T19:27:13.643Z,100669.72
2022-10-13T19:30:18.312Z,100663.56
2022-10-13T19:33:21.698Z,100666.50
2022-10-13T19:36:40.052Z,100662.53
2022-10-13T19:39:43.020Z,100663.84
2022-10-13T19:42:45.681Z,100668.06
2022-10-13T19:45:56.239Z,100665.41
2022-10-13T19:49:03.376Z,100665.94
2022-10-13T19:52:06.392Z,100666.44
2022-10-13T19:55:09.802Z,100665.66
2022-10-13T19:58:16.094Z,100664.81
2022-10-13T20:01:20.007Z,100672.22
2022-10-13T20:04:23.108Z,100670.13
2022-10-13T20:07:26.428Z,100666.34
2022-10-13T20:10:30.026Z,100665.81
2022-10-13T20:13:32.666Z,100666.91
2022-10-13T20:16:37.876Z,100661.28
2022-10-13T20:19:40.835Z,100671.06
2022-10-13T20:22:45.223Z,100667.34
2022-10-13T20:25:47.787Z,100664.13
2022-10-13T20:28:52.519Z,100676.88
2022-10-13T20:31:55.168Z,100673.69
2022-10-13T20:34:58.017Z,100666.22
2022-10-13T20:38:00.641Z,100671.28
2022-10-13T20:41:18.693Z,100668.66
2022-10-13T20:44:21.531Z,100671.00
2022-10-13T20:47:24.495Z,100675.47
2022-10-13T20:50:27.114Z,100675.47
2022-10-13T20:53:30.662Z,100671.50
2022-10-13T20:56:33.934Z,100676.47
2022-10-13T20:59:37.394Z,100675.16
2022-10-13T21:02:40.579Z,100675.94
2022-10-13T21:06:24.986Z,100663.56
2022-10-13T21:09:27.611Z,100664.50
2022-10-13T21:12:30.502Z,100662.78
2022-10-13T21:15:38.154Z,100671.78
2022-10-13T21:18:44.063Z,100665.97
2022-10-13T21:21:46.763Z,100666.41
2022-10-13T21:24:49.741Z,100671.09
2022-10-13T21:27:52.747Z,100670.06
2022-10-13T21:31:00.690Z,100658.50
2022-10-13T21:34:04.249Z,100664.44
2022-10-13T21:37:07.181Z,100661.91
2022-10-13T21:40:10.144Z,100670.63
2022-10-13T21:43:12.982Z,100663.63
2022-10-13T21:46:27.477Z,100666.56
2022-10-13T21:49:30.833Z,100673.00
2022-10-13T21:52:36.335Z,100666.50
2022-10-13T21:55:39.302Z,100663.91
2022-10-13T21:58:42.031Z,100665.69
2022-10-13T22:01:45.070Z,100661.19
2022-10-13T22:04:49.246Z,100657.19
2022-10-13T22:07:53.449Z,100653.72
2022-10-13T22:10:59.448Z,100658.44
2022-10-13T22:14:02.154Z,100651.59
2022-10-13T22:17:07.817Z,100647.31
2022-10-13T22:20:10.385Z,100645.72
2022-10-13T22:23:14.190Z,100653.66
2022-10-13T22:26:19.451Z,100643.91
2022-10-13T22:29:24.118Z,100635.12
2022-10-13T22:32:26.710Z,100642.06
2022-10-13T22:35:29.528Z,100645.28
2022-10-13T22:38:32.112Z,100640.97
2022-10-13T22:41:38.043Z,100638.25
2022-10-13T22:44:40.685Z,100643.16
2022-10-13T22:47:43.574Z,100636.03
2022-10-13T22:50:46.387Z,100640.63
2022-10-13T22:53:50.323Z,100630.88
2022-10-13T22:56:52.940Z,100636.38
2022-10-13T22:59:55.795Z,100629.41
2022-10-13T23:02:58.325Z,100636.00
2022-10-13T23:06:01.189Z,100630.53
2022-10-13T23:09:07.739Z,100636.59
2022-10-13T23:12:11.033Z,100639.25
2022-10-13T23:15:33.534Z,100630.19
2022-10-13T23:18:36.365Z,100636.00
2022-10-13T23:21:39.000Z,100627.63
2022-10-13T23:24:42.459Z,100628.22
2022-10-13T23:27:45.078Z,100630.28
2022-10-13T23:30:47.973Z,100631.22
2022-10-13T23:33:51.618Z,100632.34
2022-10-13T23:36:58.394Z,100625.19
2022-10-13T23:40:01.064Z,100617.75
2022-10-13T23:43:04.367Z,100620.06
